createdAt,value
2017-11-09T00:00:13.712Z,1012.66
2017-11-09T00:01:13.700Z,1012.64
2017-11-09T00:02:13.684Z,1012.62
2017-11-09T00:03:13.661Z,1012.67
2017-11-09T00:04:13.642Z,1012.67
2017-11-09T00:05:13.626Z,1012.68
2017-11-09T00:06:13.609Z,1012.69
2017-11-09T00:07:13.590Z,1012.74
2017-11-09T00:08:13.575Z,1012.69
2017-11-09T00:09:13.554Z,1012.72
2017-11-09T00:10:13.536Z,1012.68
2017-11-09T00:11:13.520Z,1012.65
2017-11-09T00:12:13.503Z,1012.66
2017-11-09T00:13:13.485Z,1012.65
2017-11-09T00:14:13.467Z,1012.76
2017-11-09T00:15:13.449Z,1012.77
2017-11-09T00:16:13.434Z,1012.77
2017-11-09T00:17:13.417Z,1012.74
2017-11-09T00:18:13.399Z,1012.78
2017-11-09T00:19:13.382Z,1012.77
2017-11-09T00:20:13.360Z,1012.74
2017-11-09T00:21:13.342Z,1012.78
2017-11-09T00:22:13.326Z,1012.78
2017-11-09T00:23:13.308Z,1012.74
2017-11-09T00:24:13.287Z,1012.72
2017-11-09T00:25:13.269Z,1012.67
2017-11-09T00:26:13.255Z,1012.66
2017-11-09T00:27:13.234Z,1012.7
2017-11-09T00:28:13.221Z,1012.72
2017-11-09T00:29:13.202Z,1012.67
2017-11-09T00:30:13.180Z,1012.72
2017-11-09T00:31:13.161Z,1012.73
2017-11-09T00:32:13.143Z,1012.76
2017-11-09T00:33:13.128Z,1012.78
2017-11-09T00:34:13.112Z,1012.77
2017-11-09T00:35:13.090Z,1012.75
2017-11-09T00:36:13.072Z,1012.75
2017-11-09T00:37:13.058Z,1012.73
2017-11-09T00:38:13.037Z,1012.71
2017-11-09T00:39:13.019Z,1012.71
2017-11-09T00:40:13.005Z,1012.77
2017-11-09T00:41:12.984Z,1012.7
2017-11-09T00:42:12.966Z,1012.79
2017-11-09T00:43:12.950Z,1012.78
2017-11-09T00:44:12.934Z,1012.8
2017-11-09T00:45:12.915Z,1012.81
2017-11-09T00:46:12.895Z,1012.84
2017-11-09T00:47:12.877Z,1012.84
2017-11-09T00:48:12.859Z,1012.86
2017-11-09T00:49:12.842Z,1012.89
2017-11-09T00:50:12.827Z,1012.86
2017-11-09T00:51:12.807Z,1012.84
2017-11-09T00:52:12.788Z,1012.85
2017-11-09T00:53:12.771Z,1012.84
2017-11-09T00:54:12.754Z,1012.87
2017-11-09T00:55:12.734Z,1012.89
2017-11-09T00:56:12.717Z,1012.92
2017-11-09T00:57:12.702Z,1012.9
2017-11-09T00:58:12.683Z,1012.89
2017-11-09T00:59:12.664Z,1012.92
2017-11-09T01:00:12.645Z,1012.96
2017-11-09T01:01:12.628Z,1012.92
2017-11-09T01:02:12.609Z,1012.96
2017-11-09T01:03:12.596Z,1012.99
2017-11-09T01:04:12.573Z,1012.98
2017-11-09T01:05:12.557Z,1013
2017-11-09T01:06:12.646Z,1012.97
2017-11-09T01:07:12.521Z,1012.95
2017-11-09T01:08:12.502Z,1012.98
2017-11-09T01:09:12.499Z,1012.99
2017-11-09T01:10:12.469Z,1013.03
2017-11-09T01:11:12.450Z,1013.07
2017-11-09T01:12:12.432Z,1013.08
2017-11-09T01:13:12.416Z,1013.1
2017-11-09T01:14:12.397Z,1013.1
2017-11-09T01:15:12.378Z,1013.1
2017-11-09T01:16:12.460Z,1013.12
2017-11-09T01:17:12.345Z,1013.09
2017-11-09T01:18:12.331Z,1013.03
2017-11-09T01:19:12.308Z,1013.05
2017-11-09T01:20:12.295Z,1013.02
2017-11-09T01:21:12.272Z,1013.01
2017-11-09T01:22:12.254Z,1013.04
2017-11-09T01:23:12.234Z,1013.01
2017-11-09T01:24:12.218Z,1012.97
2017-11-09T01:25:12.199Z,1012.98
2017-11-09T01:26:12.310Z,1012.97
2017-11-09T01:27:12.167Z,1012.98
2017-11-09T01:28:12.148Z,1012.99
2017-11-09T01:29:12.129Z,1013.02
2017-11-09T01:30:12.110Z,1012.99
2017-11-09T01:31:12.091Z,1012.97
2017-11-09T01:32:12.076Z,1012.98
2017-11-09T01:33:12.057Z,1013.01
2017-11-09T01:34:12.038Z,1013.04
2017-11-09T01:35:12.022Z,1013.03
2017-11-09T01:36:12.006Z,1013.04
2017-11-09T01:37:11.986Z,1013.04
2017-11-09T01:38:11.966Z,1013.05
2017-11-09T01:39:11.952Z,1013.04
2017-11-09T01:40:11.935Z,1013
2017-11-09T01:41:11.915Z,1013.02
2017-11-09T01:42:11.895Z,1012.98
2017-11-09T01:43:11.877Z,1012.97
2017-11-09T01:44:11.861Z,1013.03
2017-11-09T01:45:11.841Z,1013
2017-11-09T01:46:11.827Z,1013.05
2017-11-09T01:47:12.016Z,1013.07
2017-11-09T01:48:11.789Z,1013.07
2017-11-09T01:49:11.773Z,1013.1
2017-11-09T01:50:11.751Z,1013.12
2017-11-09T01:51:11.735Z,1013.11
2017-11-09T01:52:11.714Z,1013.14
2017-11-09T01:53:11.700Z,1013.1
2017-11-09T01:54:11.689Z,1013.11
2017-11-09T01:55:11.661Z,1013.09
2017-11-09T01:56:11.644Z,1013.07
2017-11-09T01:57:11.624Z,1013.07
2017-11-09T01:58:11.606Z,1013.09
2017-11-09T01:59:11.590Z,1013.11
2017-11-09T02:00:11.570Z,1013.1
2017-11-09T02:01:11.552Z,1013.12
2017-11-09T02:02:11.535Z,1013.13
2017-11-09T02:03:11.518Z,1013.14
2017-11-09T02:04:11.499Z,1013.17
2017-11-09T02:05:11.480Z,1013.17
2017-11-09T02:06:11.462Z,1013.19
2017-11-09T02:07:11.445Z,1013.2
2017-11-09T02:08:11.425Z,1013.25
2017-11-09T02:09:11.411Z,1013.27
2017-11-09T02:10:11.389Z,1013.29
2017-11-09T02:11:11.372Z,1013.26
2017-11-09T02:12:11.357Z,1013.25
2017-11-09T02:13:11.341Z,1013.27
2017-11-09T02:14:11.316Z,1013.24
2017-11-09T02:15:11.305Z,1013.23
2017-11-09T02:16:11.282Z,1013.22
2017-11-09T02:17:11.264Z,1013.2
2017-11-09T02:18:11.245Z,1013.23
2017-11-09T02:19:11.229Z,1013.23
2017-11-09T02:20:11.210Z,1013.24
2017-11-09T02:21:11.197Z,1013.23
2017-11-09T02:22:11.374Z,1013.2
2017-11-09T02:23:11.156Z,1013.18
2017-11-09T02:24:11.142Z,1013.21
2017-11-09T02:25:11.118Z,1013.22
2017-11-09T02:26:11.102Z,1013.24
2017-11-09T02:27:11.082Z,1013.21
2017-11-09T02:28:11.063Z,1013.21
2017-11-09T02:29:11.047Z,1013.2
2017-11-09T02:30:11.027Z,1013.19
2017-11-09T02:31:11.008Z,1013.18
2017-11-09T02:32:10.991Z,1013.18
2017-11-09T02:33:10.970Z,1013.15
2017-11-09T02:34:10.955Z,1013.16
2017-11-09T02:35:10.936Z,1013.18
2017-11-09T02:36:10.926Z,1013.15
2017-11-09T02:37:10.901Z,1013.19
2017-11-09T02:38:10.880Z,1013.24
2017-11-09T02:39:10.864Z,1013.26
2017-11-09T02:40:10.844Z,1013.26
2017-11-09T02:41:10.829Z,1013.27
2017-11-09T02:42:10.809Z,1013.31
2017-11-09T02:43:10.790Z,1013.29
2017-11-09T02:44:10.774Z,1013.3
2017-11-09T02:45:10.755Z,1013.31
2017-11-09T02:46:10.743Z,1013.33
2017-11-09T02:47:10.718Z,1013.31
2017-11-09T02:48:10.703Z,1013.29
2017-11-09T02:49:10.682Z,1013.28
2017-11-09T02:50:10.663Z,1013.27
2017-11-09T02:51:10.644Z,1013.29
2017-11-09T02:52:10.633Z,1013.26
2017-11-09T02:53:10.609Z,1013.25
2017-11-09T02:54:10.590Z,1013.23
2017-11-09T02:55:10.572Z,1013.24
2017-11-09T02:56:10.557Z,1013.26
2017-11-09T02:57:10.538Z,1013.24
2017-11-09T02:58:10.516Z,1013.26
2017-11-09T02:59:10.500Z,1013.31
2017-11-09T03:00:10.483Z,1013.31
2017-11-09T03:01:10.463Z,1013.36
2017-11-09T03:02:10.457Z,1013.4
2017-11-09T03:03:10.430Z,1013.34
2017-11-09T03:04:10.410Z,1013.41
2017-11-09T03:05:10.391Z,1013.39
2017-11-09T03:06:10.395Z,1013.38
2017-11-09T03:07:10.355Z,1013.42
2017-11-09T03:08:10.340Z,1013.4
2017-11-09T03:09:10.318Z,1013.43
2017-11-09T03:10:10.306Z,1013.36
2017-11-09T03:11:10.281Z,1013.37
2017-11-09T03:12:10.261Z,1013.34
2017-11-09T03:13:10.256Z,1013.35
2017-11-09T03:14:10.228Z,1013.32
2017-11-09T03:15:10.210Z,1013.27
2017-11-09T03:16:10.189Z,1013.32
2017-11-09T03:17:10.174Z,1013.27
2017-11-09T03:18:10.154Z,1013.23
2017-11-09T03:19:10.137Z,1013.26
2017-11-09T03:20:10.119Z,1013.19
2017-11-09T03:21:10.106Z,1013.21
2017-11-09T03:22:10.084Z,1013.19
2017-11-09T03:23:10.165Z,1013.21
2017-11-09T03:24:10.066Z,1013.24
2017-11-09T03:25:10.029Z,1013.19
2017-11-09T03:26:10.011Z,1013.22
2017-11-09T03:27:09.996Z,1013.2
2017-11-09T03:28:09.980Z,1013.21
2017-11-09T03:29:09.969Z,1013.17
2017-11-09T03:30:09.942Z,1013.19
2017-11-09T03:31:09.932Z,1013.15
2017-11-09T03:32:09.904Z,1013.16
2017-11-09T03:33:09.884Z,1013.17
2017-11-09T03:34:09.867Z,1013.21
2017-11-09T03:35:09.847Z,1013.21
2017-11-09T03:36:09.829Z,1013.21
2017-11-09T03:37:09.812Z,1013.19
2017-11-09T03:38:09.796Z,1013.22
2017-11-09T03:39:09.774Z,1013.25
2017-11-09T03:40:09.759Z,1013.24
2017-11-09T03:41:09.739Z,1013.25
2017-11-09T03:42:09.721Z,1013.25
2017-11-09T03:43:09.702Z,1013.31
2017-11-09T03:44:09.685Z,1013.3
2017-11-09T03:45:09.670Z,1013.32
2017-11-09T03:46:09.646Z,1013.3
2017-11-09T03:47:09.830Z,1013.31
2017-11-09T03:48:09.613Z,1013.32
2017-11-09T03:49:09.595Z,1013.27
2017-11-09T03:50:09.587Z,1013.26
2017-11-09T03:51:09.558Z,1013.2
2017-11-09T03:52:09.540Z,1013.19
2017-11-09T03:53:09.520Z,1013.21
2017-11-09T03:54:09.502Z,1013.26
2017-11-09T03:55:09.492Z,1013.25
2017-11-09T03:56:09.467Z,1013.27
2017-11-09T03:57:09.449Z,1013.3
2017-11-09T03:58:09.441Z,1013.28
2017-11-09T03:59:09.415Z,1013.33
2017-11-09T04:00:09.394Z,1013.35
2017-11-09T04:01:09.385Z,1013.34
2017-11-09T04:02:09.359Z,1013.35
2017-11-09T04:03:09.355Z,1013.34
2017-11-09T04:04:09.321Z,1013.32
2017-11-09T04:05:09.304Z,1013.31
2017-11-09T04:06:09.292Z,1013.32
2017-11-09T04:07:09.268Z,1013.3
2017-11-09T04:08:09.251Z,1013.31
2017-11-09T04:09:09.232Z,1013.28
2017-11-09T04:10:09.213Z,1013.28
2017-11-09T04:11:09.194Z,1013.29
2017-11-09T04:12:09.180Z,1013.27
2017-11-09T04:13:09.159Z,1013.26
2017-11-09T04:14:09.141Z,1013.28
2017-11-09T04:15:09.122Z,1013.25
2017-11-09T04:16:09.104Z,1013.25
2017-11-09T04:17:09.086Z,1013.27
2017-11-09T04:18:09.070Z,1013.26
2017-11-09T04:19:09.052Z,1013.3
2017-11-09T04:20:09.041Z,1013.31
2017-11-09T04:21:09.018Z,1013.32
2017-11-09T04:22:08.995Z,1013.34
2017-11-09T04:23:08.984Z,1013.32
2017-11-09T04:24:08.960Z,1013.32
2017-11-09T04:25:08.952Z,1013.31
2017-11-09T04:26:08.924Z,1013.3
2017-11-09T04:27:08.908Z,1013.26
2017-11-09T04:28:08.887Z,1013.26
2017-11-09T04:29:08.973Z,1013.27
2017-11-09T04:30:08.863Z,1013.28
2017-11-09T04:31:08.833Z,1013.27
2017-11-09T04:32:08.816Z,1013.28
2017-11-09T04:33:08.799Z,1013.26
2017-11-09T04:34:08.779Z,1013.29
2017-11-09T04:35:08.762Z,1013.27
2017-11-09T04:36:08.743Z,1013.24
2017-11-09T04:37:08.723Z,1013.25
2017-11-09T04:38:08.707Z,1013.24
2017-11-09T04:39:08.689Z,1013.29
2017-11-09T04:40:08.670Z,1013.27
2017-11-09T04:41:08.651Z,1013.27
2017-11-09T04:42:08.634Z,1013.22
2017-11-09T04:43:08.616Z,1013.28
2017-11-09T04:44:08.596Z,1013.25
2017-11-09T04:45:08.582Z,1013.26
2017-11-09T04:46:08.560Z,1013.27
2017-11-09T04:47:08.544Z,1013.29
2017-11-09T04:48:08.523Z,1013.27
2017-11-09T04:49:08.509Z,1013.26
2017-11-09T04:50:08.495Z,1013.27
2017-11-09T04:51:08.474Z,1013.26
2017-11-09T04:52:08.452Z,1013.24
2017-11-09T04:53:08.437Z,1013.29
2017-11-09T04:54:08.416Z,1013.23
2017-11-09T04:55:08.404Z,1013.24
2017-11-09T04:56:08.380Z,1013.26
2017-11-09T04:57:08.364Z,1013.26
2017-11-09T04:58:08.345Z,1013.24
2017-11-09T04:59:08.327Z,1013.26
2017-11-09T05:00:08.307Z,1013.28
2017-11-09T05:01:08.292Z,1013.24
2017-11-09T05:02:08.272Z,1013.26
2017-11-09T05:03:08.251Z,1013.28
2017-11-09T05:04:08.235Z,1013.28
2017-11-09T05:05:08.216Z,1013.26
2017-11-09T05:06:08.200Z,1013.29
2017-11-09T05:07:08.185Z,1013.32
2017-11-09T05:08:08.169Z,1013.32
2017-11-09T05:09:08.162Z,1013.31
2017-11-09T05:10:08.127Z,1013.31
2017-11-09T05:11:08.108Z,1013.32
2017-11-09T05:12:08.090Z,1013.31
2017-11-09T05:13:08.072Z,1013.32
2017-11-09T05:14:08.055Z,1013.31
2017-11-09T05:15:08.036Z,1013.32
2017-11-09T05:16:08.028Z,1013.34
2017-11-09T05:17:08.000Z,1013.31
2017-11-09T05:18:07.996Z,1013.31
2017-11-09T05:19:07.963Z,1013.31
2017-11-09T05:20:07.947Z,1013.3
2017-11-09T05:21:07.929Z,1013.32
2017-11-09T05:22:07.908Z,1013.29
2017-11-09T05:23:07.890Z,1013.31
2017-11-09T05:24:07.873Z,1013.33
2017-11-09T05:25:07.856Z,1013.31
2017-11-09T05:26:07.836Z,1013.34
2017-11-09T05:27:07.818Z,1013.32
2017-11-09T05:28:07.801Z,1013.32
2017-11-09T05:29:07.786Z,1013.32
2017-11-09T05:30:07.764Z,1013.31
2017-11-09T05:31:07.746Z,1013.34
2017-11-09T05:32:07.726Z,1013.38
2017-11-09T05:33:07.708Z,1013.39
2017-11-09T05:34:07.693Z,1013.39
2017-11-09T05:35:07.773Z,1013.38
2017-11-09T05:36:07.663Z,1013.39
2017-11-09T05:37:07.636Z,1013.38
2017-11-09T05:38:07.621Z,1013.39
2017-11-09T05:39:07.600Z,1013.41
2017-11-09T05:40:07.581Z,1013.38
2017-11-09T05:41:07.565Z,1013.39
2017-11-09T05:42:07.543Z,1013.36
2017-11-09T05:43:07.532Z,1013.38
2017-11-09T05:44:07.513Z,1013.38
2017-11-09T05:45:07.593Z,1013.4
2017-11-09T05:46:07.473Z,1013.4
2017-11-09T05:47:07.658Z,1013.43
2017-11-09T05:48:07.437Z,1013.41
2017-11-09T05:49:07.419Z,1013.46
2017-11-09T05:50:07.404Z,1013.45
2017-11-09T05:51:07.383Z,1013.41
2017-11-09T05:52:07.365Z,1013.45
2017-11-09T05:53:07.348Z,1013.45
2017-11-09T05:54:07.328Z,1013.47
2017-11-09T05:55:07.312Z,1013.5
2017-11-09T05:56:07.292Z,1013.47
2017-11-09T05:57:07.275Z,1013.47
2017-11-09T05:58:07.258Z,1013.49
2017-11-09T05:59:07.239Z,1013.52
2017-11-09T06:00:07.322Z,1013.49
2017-11-09T06:01:07.204Z,1013.55
2017-11-09T06:02:07.186Z,1013.51
2017-11-09T06:03:07.168Z,1013.52
2017-11-09T06:04:07.150Z,1013.51
2017-11-09T06:05:07.152Z,1013.52
2017-11-09T06:06:07.112Z,1013.58
2017-11-09T06:07:07.095Z,1013.59
2017-11-09T06:08:07.077Z,1013.6
2017-11-09T06:09:07.058Z,1013.6
2017-11-09T06:10:07.043Z,1013.56
2017-11-09T06:11:07.023Z,1013.55
2017-11-09T06:12:07.007Z,1013.55
2017-11-09T06:13:06.989Z,1013.54
2017-11-09T06:14:06.970Z,1013.58
2017-11-09T06:15:06.953Z,1013.57
2017-11-09T06:16:06.951Z,1013.59
2017-11-09T06:17:06.917Z,1013.59
2017-11-09T06:18:06.897Z,1013.65
2017-11-09T06:19:06.902Z,1013.59
2017-11-09T06:20:06.862Z,1013.59
2017-11-09T06:21:06.844Z,1013.61
2017-11-09T06:22:06.826Z,1013.61
2017-11-09T06:23:06.806Z,1013.58
2017-11-09T06:24:06.791Z,1013.56
2017-11-09T06:25:06.775Z,1013.56
2017-11-09T06:26:06.752Z,1013.57
2017-11-09T06:27:06.738Z,1013.64
2017-11-09T06:28:06.719Z,1013.61
2017-11-09T06:29:06.700Z,1013.68
2017-11-09T06:30:06.685Z,1013.65
2017-11-09T06:31:06.668Z,1013.64
2017-11-09T06:32:06.648Z,1013.65
2017-11-09T06:33:06.635Z,1013.63
2017-11-09T06:34:06.616Z,1013.65
2017-11-09T06:35:06.596Z,1013.64
2017-11-09T06:36:06.575Z,1013.64
2017-11-09T06:37:06.561Z,1013.64
2017-11-09T06:38:06.541Z,1013.65
2017-11-09T06:39:06.523Z,1013.64
2017-11-09T06:40:06.502Z,1013.64
2017-11-09T06:41:06.585Z,1013.68
2017-11-09T06:42:06.467Z,1013.66
2017-11-09T06:43:06.449Z,1013.67
2017-11-09T06:44:06.430Z,1013.67
2017-11-09T06:45:06.413Z,1013.65
2017-11-09T06:46:06.406Z,1013.68
2017-11-09T06:47:06.377Z,1013.67
2017-11-09T06:48:06.370Z,1013.72
2017-11-09T06:49:06.341Z,1013.72
2017-11-09T06:50:06.322Z,1013.71
2017-11-09T06:51:06.405Z,1013.69
2017-11-09T06:52:06.294Z,1013.75
2017-11-09T06:53:06.271Z,1013.74
2017-11-09T06:54:06.253Z,1013.74
2017-11-09T06:55:06.231Z,1013.8
2017-11-09T06:56:06.213Z,1013.78
2017-11-09T06:57:06.197Z,1013.81
2017-11-09T06:58:06.177Z,1013.8
2017-11-09T06:59:06.160Z,1013.87
2017-11-09T07:00:06.156Z,1013.83
2017-11-09T07:01:06.124Z,1013.83
2017-11-09T07:02:06.104Z,1013.84
2017-11-09T07:03:06.090Z,1013.88
2017-11-09T07:04:06.078Z,1013.88
2017-11-09T07:05:06.050Z,1013.91
2017-11-09T07:06:06.040Z,1013.92
2017-11-09T07:07:06.015Z,1013.91
2017-11-09T07:08:05.996Z,1013.89
2017-11-09T07:09:05.979Z,1013.97
2017-11-09T07:10:05.960Z,1013.92
2017-11-09T07:11:05.942Z,1013.94
2017-11-09T07:12:05.926Z,1013.96
2017-11-09T07:13:05.906Z,1013.99
2017-11-09T07:14:05.895Z,1013.98
2017-11-09T07:15:05.870Z,1014.01
2017-11-09T07:16:05.854Z,1013.98
2017-11-09T07:17:05.835Z,1013.98
2017-11-09T07:18:05.814Z,1013.92
2017-11-09T07:19:05.799Z,1013.97
2017-11-09T07:20:05.780Z,1013.93
2017-11-09T07:21:05.759Z,1013.96
2017-11-09T07:22:05.744Z,1013.97
2017-11-09T07:23:05.725Z,1013.99
2017-11-09T07:24:05.704Z,1014.01
2017-11-09T07:25:05.687Z,1014.01
2017-11-09T07:26:05.676Z,1014
2017-11-09T07:27:05.651Z,1013.98
2017-11-09T07:28:05.633Z,1013.99
2017-11-09T07:29:05.616Z,1013.98
2017-11-09T07:30:05.597Z,1014.04
2017-11-09T07:31:05.581Z,1014.03
2017-11-09T07:32:05.559Z,1014.08
2017-11-09T07:33:05.543Z,1014.08
2017-11-09T07:34:05.523Z,1014.06
2017-11-09T07:35:05.508Z,1014.09
2017-11-09T07:36:05.487Z,1014.07
2017-11-09T07:37:05.470Z,1014.03
2017-11-09T07:38:05.451Z,1013.99
2017-11-09T07:39:05.433Z,1014.01
2017-11-09T07:40:05.415Z,1013.95
2017-11-09T07:41:05.396Z,1013.96
2017-11-09T07:42:05.377Z,1013.96
2017-11-09T07:43:05.359Z,1013.97
2017-11-09T07:44:05.342Z,1014
2017-11-09T07:45:05.324Z,1014.01
2017-11-09T07:46:05.306Z,1014.05
2017-11-09T07:47:05.689Z,1014.06
2017-11-09T07:48:05.277Z,1014.05
2017-11-09T07:49:05.250Z,1014.02
2017-11-09T07:50:05.236Z,1014.05
2017-11-09T07:51:05.214Z,1014.02
2017-11-09T07:52:05.197Z,1014.06
2017-11-09T07:53:05.177Z,1014.02
2017-11-09T07:54:05.160Z,1014.06
2017-11-09T07:55:05.141Z,1014.02
2017-11-09T07:56:05.123Z,1014.07
2017-11-09T07:57:05.104Z,1014.05
2017-11-09T07:58:05.110Z,1014.06
2017-11-09T07:59:05.084Z,1014.05
2017-11-09T08:00:05.055Z,1014.05
2017-11-09T08:01:05.035Z,1014.06
2017-11-09T08:02:05.016Z,1014.08
2017-11-09T08:03:04.998Z,1014.1
2017-11-09T08:04:04.992Z,1014.11
2017-11-09T08:05:04.961Z,1014.13
2017-11-09T08:06:04.946Z,1014.12
2017-11-09T08:07:04.936Z,1014.12
2017-11-09T08:08:04.911Z,1014.12
2017-11-09T08:09:04.892Z,1014.16
2017-11-09T08:10:04.874Z,1014.14
2017-11-09T08:11:04.865Z,1014.19
2017-11-09T08:12:04.835Z,1014.21
2017-11-09T08:13:04.826Z,1014.21
2017-11-09T08:14:04.812Z,1014.23
2017-11-09T08:15:04.786Z,1014.23
2017-11-09T08:16:04.764Z,1014.23
2017-11-09T08:17:04.747Z,1014.24
2017-11-09T08:18:04.731Z,1014.28
2017-11-09T08:19:04.722Z,1014.27
2017-11-09T08:20:04.693Z,1014.3
2017-11-09T08:21:04.675Z,1014.29
2017-11-09T08:22:04.657Z,1014.3
2017-11-09T08:23:04.639Z,1014.31
2017-11-09T08:24:04.622Z,1014.28
2017-11-09T08:25:04.605Z,1014.34
2017-11-09T08:26:04.584Z,1014.29
2017-11-09T08:27:04.567Z,1014.34
2017-11-09T08:28:04.548Z,1014.33
2017-11-09T08:29:04.538Z,1014.37
2017-11-09T08:30:04.515Z,1014.42
2017-11-09T08:31:04.497Z,1014.45
2017-11-09T08:32:04.481Z,1014.42
2017-11-09T08:33:04.461Z,1014.45
2017-11-09T08:34:04.448Z,1014.45
2017-11-09T08:35:04.426Z,1014.45
2017-11-09T08:36:04.413Z,1014.46
2017-11-09T08:37:04.392Z,1014.44
2017-11-09T08:38:04.372Z,1014.43
2017-11-09T08:39:04.354Z,1014.46
2017-11-09T08:40:04.340Z,1014.43
2017-11-09T08:41:04.323Z,1014.42
2017-11-09T08:42:04.301Z,1014.4
2017-11-09T08:43:04.285Z,1014.47
2017-11-09T08:44:04.271Z,1014.45
2017-11-09T08:45:04.250Z,1014.43
2017-11-09T08:46:04.234Z,1014.47
2017-11-09T08:47:04.316Z,1014.46
2017-11-09T08:48:04.197Z,1014.42
2017-11-09T08:49:04.178Z,1014.39
2017-11-09T08:50:04.160Z,1014.44
2017-11-09T08:51:04.143Z,1014.41
2017-11-09T08:52:04.124Z,1014.43
2017-11-09T08:53:04.107Z,1014.41
2017-11-09T08:54:04.092Z,1014.41
2017-11-09T08:55:04.074Z,1014.42
2017-11-09T08:56:04.055Z,1014.39
2017-11-09T08:57:04.040Z,1014.41
2017-11-09T08:58:04.023Z,1014.41
2017-11-09T08:59:04.002Z,1014.41
2017-11-09T09:00:03.985Z,1014.4
2017-11-09T09:01:03.968Z,1014.34
2017-11-09T09:02:03.951Z,1014.31
2017-11-09T09:03:03.949Z,1014.37
2017-11-09T09:04:03.917Z,1014.39
2017-11-09T09:05:03.907Z,1014.38
2017-11-09T09:06:03.883Z,1014.42
2017-11-09T09:07:03.864Z,1014.4
2017-11-09T09:08:03.849Z,1014.45
2017-11-09T09:09:03.830Z,1014.46
2017-11-09T09:10:03.816Z,1014.46
2017-11-09T09:11:03.797Z,1014.48
2017-11-09T09:12:03.779Z,1014.46
2017-11-09T09:13:03.763Z,1014.47
2017-11-09T09:14:03.746Z,1014.43
2017-11-09T09:15:03.738Z,1014.45
2017-11-09T09:16:03.717Z,1014.45
2017-11-09T09:17:03.697Z,1014.45
2017-11-09T09:18:03.682Z,1014.41
2017-11-09T09:19:03.662Z,1014.44
2017-11-09T09:20:03.647Z,1014.4
2017-11-09T09:21:03.633Z,1014.35
2017-11-09T09:22:03.616Z,1014.41
2017-11-09T09:23:03.597Z,1014.38
2017-11-09T09:24:03.585Z,1014.36
2017-11-09T09:25:03.564Z,1014.36
2017-11-09T09:26:03.549Z,1014.35
2017-11-09T09:27:03.531Z,1014.36
2017-11-09T09:28:03.517Z,1014.36
2017-11-09T09:29:03.504Z,1014.4
2017-11-09T09:30:03.483Z,1014.41
2017-11-09T09:31:03.501Z,1014.41
2017-11-09T09:32:03.459Z,1014.44
2017-11-09T09:33:03.438Z,1014.42
2017-11-09T09:34:03.422Z,1014.42
2017-11-09T09:35:03.405Z,1014.39
2017-11-09T09:36:03.395Z,1014.43
2017-11-09T09:37:03.374Z,1014.37
2017-11-09T09:38:03.358Z,1014.39
2017-11-09T09:39:03.343Z,1014.39
2017-11-09T09:40:03.331Z,1014.39
2017-11-09T09:41:03.312Z,1014.37
2017-11-09T09:42:03.300Z,1014.38
2017-11-09T09:43:03.281Z,1014.38
2017-11-09T09:44:03.265Z,1014.36
2017-11-09T09:45:03.253Z,1014.34
2017-11-09T09:46:03.235Z,1014.33
2017-11-09T09:47:03.222Z,1014.29
2017-11-09T09:48:03.203Z,1014.34
2017-11-09T09:49:03.187Z,1014.33
2017-11-09T09:50:03.171Z,1014.35
2017-11-09T09:51:03.155Z,1014.33
2017-11-09T09:52:03.141Z,1014.28
2017-11-09T09:53:03.127Z,1014.31
2017-11-09T09:54:03.108Z,1014.31
2017-11-09T09:55:03.092Z,1014.33
2017-11-09T09:56:03.076Z,1014.35
2017-11-09T09:57:03.062Z,1014.32
2017-11-09T09:58:03.043Z,1014.3
2017-11-09T09:59:03.029Z,1014.31
2017-11-09T10:00:03.021Z,1014.32
2017-11-09T10:01:02.998Z,1014.31
2017-11-09T10:02:02.981Z,1014.34
2017-11-09T10:03:02.963Z,1014.35
2017-11-09T10:04:02.946Z,1014.34
2017-11-09T10:05:02.931Z,1014.34
2017-11-09T10:06:02.914Z,1014.37
2017-11-09T10:07:02.898Z,1014.4
2017-11-09T10:08:02.883Z,1014.34
2017-11-09T10:09:02.866Z,1014.35
2017-11-09T10:10:02.852Z,1014.35
2017-11-09T10:11:02.834Z,1014.34
2017-11-09T10:12:02.819Z,1014.35
2017-11-09T10:13:02.800Z,1014.34
2017-11-09T10:14:02.794Z,1014.38
2017-11-09T10:15:02.772Z,1014.38
2017-11-09T10:16:02.762Z,1014.38
2017-11-09T10:17:02.737Z,1014.38
2017-11-09T10:18:02.827Z,1014.37
2017-11-09T10:19:02.707Z,1014.42
2017-11-09T10:20:02.687Z,1014.33
2017-11-09T10:21:02.674Z,1014.36
2017-11-09T10:22:02.657Z,1014.32
2017-11-09T10:23:02.640Z,1014.29
2017-11-09T10:24:02.626Z,1014.26
2017-11-09T10:25:02.611Z,1014.28
2017-11-09T10:26:02.592Z,1014.27
2017-11-09T10:27:02.575Z,1014.26
2017-11-09T10:28:02.561Z,1014.23
2017-11-09T10:29:02.542Z,1014.18
2017-11-09T10:30:02.536Z,1014.19
2017-11-09T10:31:02.511Z,1014.2
2017-11-09T10:32:02.492Z,1014.13
2017-11-09T10:33:02.476Z,1014.17
2017-11-09T10:34:02.461Z,1014.17
2017-11-09T10:35:02.445Z,1014.12
2017-11-09T10:36:02.428Z,1014.14
2017-11-09T10:37:02.410Z,1014.07
2017-11-09T10:38:02.399Z,1014.08
2017-11-09T10:39:02.380Z,1014.11
2017-11-09T10:40:02.366Z,1014.04
2017-11-09T10:41:02.350Z,1014.11
2017-11-09T10:42:02.883Z,1014.07
2017-11-09T10:43:02.540Z,1014.05
2017-11-09T10:44:02.301Z,1014.08
2017-11-09T10:45:02.283Z,1014.06
2017-11-09T10:46:02.270Z,1014.08
2017-11-09T10:47:02.249Z,1014.12
2017-11-09T10:48:02.232Z,1014.09
2017-11-09T10:49:02.225Z,1014.09
2017-11-09T10:50:02.198Z,1014.11
2017-11-09T10:51:02.182Z,1014.08
2017-11-09T10:52:02.167Z,1014.11
2017-11-09T10:53:02.148Z,1014.11
2017-11-09T10:54:02.137Z,1014.07
2017-11-09T10:55:02.126Z,1014.14
2017-11-09T10:56:02.110Z,1014.11
2017-11-09T10:57:02.090Z,1014.18
2017-11-09T10:58:02.091Z,1014.16
2017-11-09T10:59:02.055Z,1014.17
2017-11-09T11:00:02.040Z,1014.16
2017-11-09T11:01:02.021Z,1014.15
2017-11-09T11:02:02.003Z,1014.11
2017-11-09T11:03:01.988Z,1014.11
2017-11-09T11:04:01.968Z,1014.08
2017-11-09T11:05:01.952Z,1014.05
2017-11-09T11:06:01.937Z,1014.01
2017-11-09T11:07:01.923Z,1014
2017-11-09T11:08:01.905Z,1013.99
2017-11-09T11:09:01.897Z,1013.99
2017-11-09T11:10:01.905Z,1013.98
2017-11-09T11:11:01.854Z,1013.94
2017-11-09T11:12:01.836Z,1013.91
2017-11-09T11:13:01.822Z,1013.93
2017-11-09T11:14:01.805Z,1013.96
2017-11-09T11:15:01.789Z,1013.97
2017-11-09T11:16:01.772Z,1013.95
2017-11-09T11:17:01.760Z,1013.93
2017-11-09T11:18:01.741Z,1013.9
2017-11-09T11:19:01.730Z,1013.91
2017-11-09T11:20:01.713Z,1013.97
2017-11-09T11:21:01.699Z,1013.94
2017-11-09T11:22:01.673Z,1013.97
2017-11-09T11:23:01.660Z,1014.02
2017-11-09T11:24:01.639Z,1013.99
2017-11-09T11:25:01.624Z,1013.98
2017-11-09T11:26:01.606Z,1014
2017-11-09T11:27:01.602Z,1014.05
2017-11-09T11:28:01.571Z,1013.97
2017-11-09T11:29:01.556Z,1013.99
2017-11-09T11:30:01.537Z,1014.02
2017-11-09T11:31:01.522Z,1013.92
2017-11-09T11:32:01.506Z,1013.97
2017-11-09T11:33:01.492Z,1013.98
2017-11-09T11:34:01.575Z,1013.99
2017-11-09T11:35:01.456Z,1014
2017-11-09T11:36:01.437Z,1014
2017-11-09T11:37:01.420Z,1014.01
2017-11-09T11:38:01.409Z,1013.97
2017-11-09T11:39:01.391Z,1013.93
2017-11-09T11:40:01.373Z,1013.95
2017-11-09T11:41:01.358Z,1013.9
2017-11-09T11:42:01.341Z,1013.9
2017-11-09T11:43:01.319Z,1013.86
2017-11-09T11:44:01.358Z,1013.9
2017-11-09T11:45:01.288Z,1013.86
2017-11-09T11:46:01.270Z,1013.87
2017-11-09T11:47:01.252Z,1013.84
2017-11-09T11:48:01.437Z,1013.83
2017-11-09T11:49:01.325Z,1013.77
2017-11-09T11:50:01.208Z,1013.77
2017-11-09T11:51:01.183Z,1013.77
2017-11-09T11:52:01.166Z,1013.71
2017-11-09T11:53:01.149Z,1013.7
2017-11-09T11:54:01.144Z,1013.73
2017-11-09T11:55:01.114Z,1013.77
2017-11-09T11:56:01.097Z,1013.76
2017-11-09T11:57:01.085Z,1013.79
2017-11-09T11:58:01.064Z,1013.79
2017-11-09T11:59:01.046Z,1013.81
2017-11-09T12:00:01.034Z,1013.83
2017-11-09T12:01:01.013Z,1013.83
2017-11-09T12:02:01.005Z,1013.82
2017-11-09T12:03:00.979Z,1013.8
2017-11-09T12:04:00.961Z,1013.79
2017-11-09T12:05:00.943Z,1013.73
2017-11-09T12:06:00.928Z,1013.72
2017-11-09T12:07:00.911Z,1013.66
2017-11-09T12:08:00.893Z,1013.65